sensor_id;sensor_type;location;lat;lon;timestamp;P1;durP1;ratioP1;P2;durP2;ratioP2
68886;SDS011;55925;51.764;6.402;2024-01-10T00:01:31;5.60;;;2.47;;
68886;SDS011;55925;51.764;6.402;2024-01-10T00:03:57;6.80;;;2.45;;
68886;SDS011;55925;51.764;6.402;2024-01-10T00:08:49;5.32;;;1.60;;
68886;SDS011;55925;51.764;6.402;2024-01-10T00:11:15;7.32;;;2.60;;
68886;SDS011;55925;51.764;6.402;2024-01-10T00:16:07;6.28;;;2.50;;
68886;SDS011;55925;51.764;6.402;2024-01-10T00:18:33;4.97;;;3.28;;
68886;SDS011;55925;51.764;6.402;2024-01-10T00:20:59;6.78;;;2.28;;
68886;SDS011;55925;51.764;6.402;2024-01-10T00:25:51;5.38;;;2.03;;
68886;SDS011;55925;51.764;6.402;2024-01-10T00:28:17;6.07;;;2.35;;
68886;SDS011;55925;51.764;6.402;2024-01-10T00:30:46;6.35;;;2.30;;
68886;SDS011;55925;51.764;6.402;2024-01-10T00:33:15;1.67;;;1.13;;
68886;SDS011;55925;51.764;6.402;2024-01-10T00:35:41;3.33;;;1.52;;
68886;SDS011;55925;51.764;6.402;2024-01-10T00:38:07;7.57;;;2.88;;
68886;SDS011;55925;51.764;6.402;2024-01-10T00:42:59;4.70;;;2.00;;
68886;SDS011;55925;51.764;6.402;2024-01-10T00:45:25;3.13;;;1.50;;
68886;SDS011;55925;51.764;6.402;2024-01-10T00:47:51;2.67;;;1.45;;
68886;SDS011;55925;51.764;6.402;2024-01-10T00:50:17;4.88;;;2.03;;
68886;SDS011;55925;51.764;6.402;2024-01-10T00:55:08;2.60;;;1.83;;
68886;SDS011;55925;51.764;6.402;2024-01-10T00:57:34;3.67;;;1.65;;
68886;SDS011;55925;51.764;6.402;2024-01-10T01:00:00;3.72;;;1.40;;
68886;SDS011;55925;51.764;6.402;2024-01-10T01:02:28;4.72;;;1.67;;
68886;SDS011;55925;51.764;6.402;2024-01-10T01:07:20;3.45;;;1.83;;
68886;SDS011;55925;51.764;6.402;2024-01-10T01:09:46;4.45;;;1.83;;
68886;SDS011;55925;51.764;6.402;2024-01-10T01:12:12;4.30;;;2.22;;
68886;SDS011;55925;51.764;6.402;2024-01-10T01:14:38;11.18;;;2.22;;
68886;SDS011;55925;51.764;6.402;2024-01-10T01:17:04;6.97;;;2.85;;
68886;SDS011;55925;51.764;6.402;2024-01-10T01:21:56;4.88;;;2.40;;
68886;SDS011;55925;51.764;6.402;2024-01-10T01:24:22;6.65;;;1.92;;
68886;SDS011;55925;51.764;6.402;2024-01-10T01:26:48;6.13;;;2.17;;
68886;SDS011;55925;51.764;6.402;2024-01-10T01:29:13;4.50;;;1.52;;
68886;SDS011;55925;51.764;6.402;2024-01-10T01:31:39;8.23;;;2.58;;
68886;SDS011;55925;51.764;6.402;2024-01-10T01:34:05;7.43;;;2.13;;
68886;SDS011;55925;51.764;6.402;2024-01-10T01:36:31;6.68;;;1.90;;
68886;SDS011;55925;51.764;6.402;2024-01-10T01:38:57;6.68;;;1.75;;
68886;SDS011;55925;51.764;6.402;2024-01-10T01:41:23;5.93;;;2.45;;
68886;SDS011;55925;51.764;6.402;2024-01-10T01:43:49;4.13;;;1.70;;
68886;SDS011;55925;51.764;6.402;2024-01-10T01:46:15;10.45;;;2.92;;
68886;SDS011;55925;51.764;6.402;2024-01-10T01:51:07;4.03;;;1.73;;
68886;SDS011;55925;51.764;6.402;2024-01-10T01:53:34;3.83;;;1.67;;
68886;SDS011;55925;51.764;6.402;2024-01-10T01:56:02;2.85;;;1.67;;
68886;SDS011;55925;51.764;6.402;2024-01-10T01:58:28;3.65;;;1.70;;
68886;SDS011;55925;51.764;6.402;2024-01-10T02:00:55;2.47;;;1.55;;
68886;SDS011;55925;51.764;6.402;2024-01-10T02:03:21;4.95;;;1.98;;
68886;SDS011;55925;51.764;6.402;2024-01-10T02:08:13;4.28;;;1.42;;
68886;SDS011;55925;51.764;6.402;2024-01-10T02:10:39;6.07;;;2.53;;
68886;SDS011;55925;51.764;6.402;2024-01-10T02:15:33;7.72;;;2.80;;
68886;SDS011;55925;51.764;6.402;2024-01-10T02:17:59;7.10;;;2.10;;
68886;SDS011;55925;51.764;6.402;2024-01-10T02:20:25;4.95;;;1.98;;
68886;SDS011;55925;51.764;6.402;2024-01-10T02:22:51;5.32;;;2.45;;
68886;SDS011;55925;51.764;6.402;2024-01-10T02:25:17;4.72;;;2.08;;
68886;SDS011;55925;51.764;6.402;2024-01-10T02:27:43;4.50;;;2.58;;
68886;SDS011;55925;51.764;6.402;2024-01-10T02:30:09;7.10;;;2.47;;
68886;SDS011;55925;51.764;6.402;2024-01-10T02:32:36;4.35;;;2.00;;
68886;SDS011;55925;51.764;6.402;2024-01-10T02:35:02;5.30;;;2.67;;
68886;SDS011;55925;51.764;6.402;2024-01-10T02:37:28;4.13;;;1.73;;
68886;SDS011;55925;51.764;6.402;2024-01-10T02:39:54;6.95;;;2.13;;
68886;SDS011;55925;51.764;6.402;2024-01-10T02:42:20;6.43;;;2.38;;
68886;SDS011;55925;51.764;6.402;2024-01-10T02:44:46;6.15;;;3.00;;
68886;SDS011;55925;51.764;6.402;2024-01-10T02:47:12;7.72;;;2.80;;
68886;SDS011;55925;51.764;6.402;2024-01-10T02:49:38;4.35;;;2.30;;
68886;SDS011;55925;51.764;6.402;2024-01-10T02:52:04;5.78;;;2.75;;
68886;SDS011;55925;51.764;6.402;2024-01-10T02:54:30;8.20;;;2.72;;
68886;SDS011;55925;51.764;6.402;2024-01-10T02:56:56;8.00;;;3.15;;
68886;SDS011;55925;51.764;6.402;2024-01-10T02:59:22;3.95;;;1.98;;
68886;SDS011;55925;51.764;6.402;2024-01-10T03:01:48;6.60;;;2.97;;
68886;SDS011;55925;51.764;6.402;2024-01-10T03:04:14;6.88;;;2.47;;
68886;SDS011;55925;51.764;6.402;2024-01-10T03:06:40;5.22;;;2.35;;
68886;SDS011;55925;51.764;6.402;2024-01-10T03:09:06;5.93;;;2.70;;
68886;SDS011;55925;51.764;6.402;2024-01-10T03:14:01;6.03;;;2.45;;
68886;SDS011;55925;51.764;6.402;2024-01-10T03:16:27;4.07;;;1.70;;
68886;SDS011;55925;51.764;6.402;2024-01-10T03:18:53;4.85;;;2.33;;
68886;SDS011;55925;51.764;6.402;2024-01-10T03:21:19;7.63;;;2.05;;
68886;SDS011;55925;51.764;6.402;2024-01-10T03:23:59;7.25;;;2.17;;
68886;SDS011;55925;51.764;6.402;2024-01-10T03:26:26;8.02;;;2.42;;
68886;SDS011;55925;51.764;6.402;2024-01-10T03:28:52;6.22;;;1.73;;
68886;SDS011;55925;51.764;6.402;2024-01-10T03:31:18;4.82;;;2.50;;
68886;SDS011;55925;51.764;6.402;2024-01-10T03:36:15;4.45;;;1.88;;
68886;SDS011;55925;51.764;6.402;2024-01-10T03:38:41;5.68;;;1.80;;
68886;SDS011;55925;51.764;6.402;2024-01-10T03:41:07;5.53;;;2.08;;
68886;SDS011;55925;51.764;6.402;2024-01-10T03:43:33;7.72;;;2.30;;
68886;SDS011;55925;51.764;6.402;2024-01-10T03:45:58;6.72;;;2.17;;
68886;SDS011;55925;51.764;6.402;2024-01-10T03:48:24;7.50;;;2.80;;
68886;SDS011;55925;51.764;6.402;2024-01-10T03:50:50;8.65;;;3.03;;
68886;SDS011;55925;51.764;6.402;2024-01-10T03:53:16;6.07;;;1.80;;
68886;SDS011;55925;51.764;6.402;2024-01-10T03:55:42;7.93;;;2.42;;
68886;SDS011;55925;51.764;6.402;2024-01-10T03:58:08;7.75;;;2.58;;
68886;SDS011;55925;51.764;6.402;2024-01-10T04:00:34;5.45;;;2.35;;
68886;SDS011;55925;51.764;6.402;2024-01-10T04:03:00;5.95;;;2.03;;
68886;SDS011;55925;51.764;6.402;2024-01-10T04:05:26;4.60;;;1.83;;
68886;SDS011;55925;51.764;6.402;2024-01-10T04:07:52;6.40;;;2.28;;
68886;SDS011;55925;51.764;6.402;2024-01-10T04:10:18;4.25;;;2.47;;
68886;SDS011;55925;51.764;6.402;2024-01-10T04:12:44;3.17;;;1.80;;
68886;SDS011;55925;51.764;6.402;2024-01-10T04:17:36;4.03;;;1.85;;
68886;SDS011;55925;51.764;6.402;2024-01-10T04:20:02;5.82;;;2.33;;
68886;SDS011;55925;51.764;6.402;2024-01-10T04:22:28;4.32;;;2.05;;
68886;SDS011;55925;51.764;6.402;2024-01-10T04:24:57;9.85;;;2.15;;
68886;SDS011;55925;51.764;6.402;2024-01-10T04:27:23;7.35;;;2.35;;
68886;SDS011;55925;51.764;6.402;2024-01-10T04:29:49;6.10;;;2.22;;
68886;SDS011;55925;51.764;6.402;2024-01-10T04:32:15;6.05;;;2.17;;
68886;SDS011;55925;51.764;6.402;2024-01-10T04:34:41;4.78;;;2.38;;
68886;SDS011;55925;51.764;6.402;2024-01-10T04:37:07;6.25;;;2.10;;
68886;SDS011;55925;51.764;6.402;2024-01-10T04:39:34;4.35;;;2.05;;
68886;SDS011;55925;51.764;6.402;2024-01-10T04:42:00;6.72;;;2.75;;
68886;SDS011;55925;51.764;6.402;2024-01-10T04:44:26;7.97;;;2.67;;
68886;SDS011;55925;51.764;6.402;2024-01-10T04:46:52;6.70;;;2.47;;
68886;SDS011;55925;51.764;6.402;2024-01-10T04:49:19;6.50;;;2.38;;
68886;SDS011;55925;51.764;6.402;2024-01-10T04:51:45;7.60;;;2.65;;
68886;SDS011;55925;51.764;6.402;2024-01-10T04:54:12;7.43;;;2.63;;
68886;SDS011;55925;51.764;6.402;2024-01-10T04:59:04;5.75;;;2.17;;
68886;SDS011;55925;51.764;6.402;2024-01-10T05:01:30;5.07;;;2.15;;
68886;SDS011;55925;51.764;6.402;2024-01-10T05:06:22;6.38;;;2.22;;
68886;SDS011;55925;51.764;6.402;2024-01-10T05:08:48;4.63;;;1.55;;
68886;SDS011;55925;51.764;6.402;2024-01-10T05:11:14;5.25;;;2.22;;
68886;SDS011;55925;51.764;6.402;2024-01-10T05:13:41;9.35;;;3.17;;
68886;SDS011;55925;51.764;6.402;2024-01-10T05:16:06;5.07;;;2.15;;
68886;SDS011;55925;51.764;6.402;2024-01-10T05:18:32;7.40;;;2.92;;
68886;SDS011;55925;51.764;6.402;2024-01-10T05:20:59;5.47;;;1.83;;
68886;SDS011;55925;51.764;6.402;2024-01-10T05:23:25;4.60;;;2.13;;
68886;SDS011;55925;51.764;6.402;2024-01-10T05:25:51;3.45;;;1.92;;
68886;SDS011;55925;51.764;6.402;2024-01-10T05:28:17;6.43;;;2.40;;
68886;SDS011;55925;51.764;6.402;2024-01-10T05:30:43;7.97;;;3.17;;
68886;SDS011;55925;51.764;6.402;2024-01-10T05:33:09;8.48;;;3.42;;
68886;SDS011;55925;51.764;6.402;2024-01-10T05:35:35;8.63;;;2.92;;
68886;SDS011;55925;51.764;6.402;2024-01-10T05:38:02;4.85;;;2.67;;
68886;SDS011;55925;51.764;6.402;2024-01-10T05:40:28;4.57;;;2.03;;
68886;SDS011;55925;51.764;6.402;2024-01-10T05:42:57;6.25;;;1.73;;
68886;SDS011;55925;51.764;6.402;2024-01-10T05:45:26;6.10;;;2.28;;
68886;SDS011;55925;51.764;6.402;2024-01-10T05:47:53;9.45;;;3.10;;
68886;SDS011;55925;51.764;6.402;2024-01-10T05:52:45;6.55;;;2.22;;
68886;SDS011;55925;51.764;6.402;2024-01-10T05:57:36;2.63;;;1.42;;
68886;SDS011;55925;51.764;6.402;2024-01-10T06:00:03;4.25;;;2.42;;
68886;SDS011;55925;51.764;6.402;2024-01-10T06:02:30;6.07;;;2.22;;
68886;SDS011;55925;51.764;6.402;2024-01-10T06:04:56;5.63;;;2.05;;
68886;SDS011;55925;51.764;6.402;2024-01-10T06:07:22;6.55;;;2.20;;
68886;SDS011;55925;51.764;6.402;2024-01-10T06:09:48;6.95;;;2.03;;
68886;SDS011;55925;51.764;6.402;2024-01-10T06:12:14;7.32;;;2.65;;
68886;SDS011;55925;51.764;6.402;2024-01-10T06:14:39;5.68;;;2.35;;
68886;SDS011;55925;51.764;6.402;2024-01-10T06:17:06;11.93;;;3.47;;
68886;SDS011;55925;51.764;6.402;2024-01-10T06:19:32;8.82;;;3.15;;
68886;SDS011;55925;51.764;6.402;2024-01-10T06:21:58;7.80;;;3.38;;
68886;SDS011;55925;51.764;6.402;2024-01-10T06:26:50;7.88;;;2.40;;
68886;SDS011;55925;51.764;6.402;2024-01-10T06:29:17;8.02;;;2.92;;
68886;SDS011;55925;51.764;6.402;2024-01-10T06:31:43;7.22;;;3.33;;
68886;SDS011;55925;51.764;6.402;2024-01-10T06:34:09;3.38;;;1.70;;
68886;SDS011;55925;51.764;6.402;2024-01-10T06:36:35;9.88;;;2.58;;
68886;SDS011;55925;51.764;6.402;2024-01-10T06:39:01;8.18;;;3.40;;
68886;SDS011;55925;51.764;6.402;2024-01-10T06:43:53;3.72;;;1.83;;
68886;SDS011;55925;51.764;6.402;2024-01-10T06:46:19;9.02;;;2.88;;
68886;SDS011;55925;51.764;6.402;2024-01-10T06:48:45;7.97;;;2.88;;
68886;SDS011;55925;51.764;6.402;2024-01-10T06:51:15;7.43;;;2.65;;
68886;SDS011;55925;51.764;6.402;2024-01-10T06:53:41;2.85;;;2.00;;
68886;SDS011;55925;51.764;6.402;2024-01-10T06:56:07;7.07;;;2.45;;
68886;SDS011;55925;51.764;6.402;2024-01-10T06:58:34;7.13;;;2.65;;
68886;SDS011;55925;51.764;6.402;2024-01-10T07:01:00;6.53;;;2.70;;
68886;SDS011;55925;51.764;6.402;2024-01-10T07:03:29;8.88;;;2.88;;
68886;SDS011;55925;51.764;6.402;2024-01-10T07:05:55;7.18;;;2.97;;
68886;SDS011;55925;51.764;6.402;2024-01-10T07:08:22;3.72;;;2.00;;
68886;SDS011;55925;51.764;6.402;2024-01-10T07:10:48;6.88;;;2.83;;
68886;SDS011;55925;51.764;6.402;2024-01-10T07:13:14;11.45;;;3.78;;
68886;SDS011;55925;51.764;6.402;2024-01-10T07:15:40;8.05;;;3.08;;
68886;SDS011;55925;51.764;6.402;2024-01-10T07:18:06;6.30;;;3.15;;
68886;SDS011;55925;51.764;6.402;2024-01-10T07:20:32;9.00;;;4.10;;
68886;SDS011;55925;51.764;6.402;2024-01-10T07:22:58;7.28;;;3.35;;
68886;SDS011;55925;51.764;6.402;2024-01-10T07:25:24;6.88;;;2.40;;
68886;SDS011;55925;51.764;6.402;2024-01-10T07:27:53;10.45;;;4.28;;
68886;SDS011;55925;51.764;6.402;2024-01-10T07:30:19;11.70;;;3.80;;
68886;SDS011;55925;51.764;6.402;2024-01-10T07:32:45;9.43;;;3.95;;
68886;SDS011;55925;51.764;6.402;2024-01-10T07:35:12;10.60;;;4.03;;
68886;SDS011;55925;51.764;6.402;2024-01-10T07:37:41;7.25;;;3.55;;
68886;SDS011;55925;51.764;6.402;2024-01-10T07:40:10;8.45;;;4.03;;
68886;SDS011;55925;51.764;6.402;2024-01-10T07:42:36;5.85;;;3.03;;
68886;SDS011;55925;51.764;6.402;2024-01-10T07:45:04;7.50;;;3.30;;
68886;SDS011;55925;51.764;6.402;2024-01-10T07:47:31;3.53;;;1.80;;
68886;SDS011;55925;51.764;6.402;2024-01-10T07:49:57;10.07;;;3.17;;
68886;SDS011;55925;51.764;6.402;2024-01-10T07:54:49;9.05;;;3.58;;
68886;SDS011;55925;51.764;6.402;2024-01-10T07:57:15;9.88;;;3.03;;
68886;SDS011;55925;51.764;6.402;2024-01-10T07:59:43;6.00;;;3.55;;
68886;SDS011;55925;51.764;6.402;2024-01-10T08:02:09;8.88;;;3.70;;
68886;SDS011;55925;51.764;6.402;2024-01-10T08:07:01;5.53;;;2.45;;
68886;SDS011;55925;51.764;6.402;2024-01-10T08:09:27;11.32;;;3.53;;
68886;SDS011;55925;51.764;6.402;2024-01-10T08:11:53;11.15;;;3.88;;
68886;SDS011;55925;51.764;6.402;2024-01-10T08:14:19;10.73;;;4.18;;
68886;SDS011;55925;51.764;6.402;2024-01-10T08:16:45;8.07;;;3.53;;
68886;SDS011;55925;51.764;6.402;2024-01-10T08:19:10;9.88;;;3.47;;
68886;SDS011;55925;51.764;6.402;2024-01-10T08:21:36;18.35;;;3.60;;
68886;SDS011;55925;51.764;6.402;2024-01-10T08:24:02;9.07;;;3.88;;
68886;SDS011;55925;51.764;6.402;2024-01-10T08:26:28;12.20;;;3.63;;
68886;SDS011;55925;51.764;6.402;2024-01-10T08:28:54;8.68;;;3.22;;
68886;SDS011;55925;51.764;6.402;2024-01-10T08:31:21;9.23;;;3.80;;
68886;SDS011;55925;51.764;6.402;2024-01-10T08:33:47;8.60;;;2.92;;
68886;SDS011;55925;51.764;6.402;2024-01-10T08:36:13;10.55;;;3.50;;
68886;SDS011;55925;51.764;6.402;2024-01-10T08:38:40;8.82;;;3.70;;
68886;SDS011;55925;51.764;6.402;2024-01-10T08:43:31;9.40;;;3.20;;
68886;SDS011;55925;51.764;6.402;2024-01-10T08:45:57;8.77;;;4.50;;
68886;SDS011;55925;51.764;6.402;2024-01-10T08:50:50;10.93;;;4.10;;
68886;SDS011;55925;51.764;6.402;2024-01-10T08:53:16;5.07;;;2.47;;
68886;SDS011;55925;51.764;6.402;2024-01-10T08:55:42;13.35;;;4.57;;
68886;SDS011;55925;51.764;6.402;2024-01-10T08:58:08;6.40;;;2.22;;
68886;SDS011;55925;51.764;6.402;2024-01-10T09:00:34;6.30;;;3.28;;
68886;SDS011;55925;51.764;6.402;2024-01-10T09:03:00;11.38;;;3.22;;
68886;SDS011;55925;51.764;6.402;2024-01-10T09:05:26;9.43;;;3.95;;
68886;SDS011;55925;51.764;6.402;2024-01-10T09:07:52;10.95;;;3.35;;
68886;SDS011;55925;51.764;6.402;2024-01-10T09:10:21;8.50;;;2.80;;
68886;SDS011;55925;51.764;6.402;2024-01-10T09:12:47;11.25;;;4.18;;
68886;SDS011;55925;51.764;6.402;2024-01-10T09:17:42;11.40;;;4.45;;
68886;SDS011;55925;51.764;6.402;2024-01-10T09:20:08;8.02;;;3.50;;
68886;SDS011;55925;51.764;6.402;2024-01-10T09:22:35;10.65;;;3.78;;
68886;SDS011;55925;51.764;6.402;2024-01-10T09:25:01;9.98;;;3.60;;
68886;SDS011;55925;51.764;6.402;2024-01-10T09:27:32;11.88;;;5.20;;
68886;SDS011;55925;51.764;6.402;2024-01-10T09:29:59;8.73;;;3.00;;
68886;SDS011;55925;51.764;6.402;2024-01-10T09:32:27;8.50;;;2.83;;
68886;SDS011;55925;51.764;6.402;2024-01-10T09:34:53;13.85;;;4.90;;
68886;SDS011;55925;51.764;6.402;2024-01-10T09:39:45;9.32;;;3.70;;
68886;SDS011;55925;51.764;6.402;2024-01-10T09:42:11;11.07;;;3.83;;
68886;SDS011;55925;51.764;6.402;2024-01-10T09:44:37;8.48;;;3.42;;
68886;SDS011;55925;51.764;6.402;2024-01-10T09:47:04;11.55;;;4.30;;
68886;SDS011;55925;51.764;6.402;2024-01-10T09:51:59;7.78;;;2.78;;
68886;SDS011;55925;51.764;6.402;2024-01-10T09:54:25;8.90;;;3.40;;
68886;SDS011;55925;51.764;6.402;2024-01-10T09:56:52;10.50;;;4.32;;
68886;SDS011;55925;51.764;6.402;2024-01-10T09:59:18;7.43;;;3.13;;
68886;SDS011;55925;51.764;6.402;2024-01-10T10:04:11;7.40;;;3.00;;
68886;SDS011;55925;51.764;6.402;2024-01-10T10:06:37;8.48;;;3.05;;
68886;SDS011;55925;51.764;6.402;2024-01-10T10:09:03;11.57;;;4.60;;
68886;SDS011;55925;51.764;6.402;2024-01-10T10:13:55;11.60;;;4.03;;
68886;SDS011;55925;51.764;6.402;2024-01-10T10:18:47;11.40;;;5.13;;
68886;SDS011;55925;51.764;6.402;2024-01-10T10:21:15;11.80;;;4.70;;
68886;SDS011;55925;51.764;6.402;2024-01-10T10:23:42;11.45;;;4.10;;
68886;SDS011;55925;51.764;6.402;2024-01-10T10:26:15;12.93;;;4.80;;
68886;SDS011;55925;51.764;6.402;2024-01-10T10:28:45;12.15;;;3.85;;
68886;SDS011;55925;51.764;6.402;2024-01-10T10:31:11;11.13;;;4.30;;
68886;SDS011;55925;51.764;6.402;2024-01-10T10:33:37;13.38;;;4.93;;
68886;SDS011;55925;51.764;6.402;2024-01-10T10:36:03;16.25;;;5.60;;
68886;SDS011;55925;51.764;6.402;2024-01-10T10:38:29;12.35;;;5.13;;
68886;SDS011;55925;51.764;6.402;2024-01-10T10:40:55;13.35;;;4.57;;
68886;SDS011;55925;51.764;6.402;2024-01-10T10:43:24;13.32;;;5.40;;
68886;SDS011;55925;51.764;6.402;2024-01-10T10:45:50;13.57;;;5.28;;
68886;SDS011;55925;51.764;6.402;2024-01-10T10:48:17;12.55;;;5.25;;
68886;SDS011;55925;51.764;6.402;2024-01-10T10:50:49;9.70;;;4.20;;
68886;SDS011;55925;51.764;6.402;2024-01-10T10:53:16;10.75;;;3.53;;
68886;SDS011;55925;51.764;6.402;2024-01-10T10:55:44;9.48;;;3.70;;
68886;SDS011;55925;51.764;6.402;2024-01-10T10:58:10;11.25;;;4.32;;
68886;SDS011;55925;51.764;6.402;2024-01-10T11:00:36;6.22;;;3.13;;
68886;SDS011;55925;51.764;6.402;2024-01-10T11:03:03;12.10;;;4.75;;
68886;SDS011;55925;51.764;6.402;2024-01-10T11:05:30;10.25;;;4.85;;
68886;SDS011;55925;51.764;6.402;2024-01-10T11:07:57;14.00;;;5.57;;
68886;SDS011;55925;51.764;6.402;2024-01-10T11:10:25;10.35;;;3.85;;
68886;SDS011;55925;51.764;6.402;2024-01-10T11:20:57;8.95;;;4.75;;
68886;SDS011;55925;51.764;6.402;2024-01-10T11:23:36;11.00;;;3.30;;
68886;SDS011;55925;51.764;6.402;2024-01-10T11:26:03;9.32;;;3.95;;
68886;SDS011;55925;51.764;6.402;2024-01-10T11:28:32;11.63;;;4.22;;
68886;SDS011;55925;51.764;6.402;2024-01-10T11:30:58;14.30;;;4.28;;
68886;SDS011;55925;51.764;6.402;2024-01-10T11:33:25;9.30;;;3.40;;
68886;SDS011;55925;51.764;6.402;2024-01-10T11:41:23;13.70;;;4.47;;
68886;SDS011;55925;51.764;6.402;2024-01-10T11:46:34;11.38;;;4.05;;
68886;SDS011;55925;51.764;6.402;2024-01-10T11:49:00;16.55;;;5.18;;
68886;SDS011;55925;51.764;6.402;2024-01-10T11:51:26;10.90;;;4.93;;
68886;SDS011;55925;51.764;6.402;2024-01-10T11:53:52;11.18;;;4.03;;
68886;SDS011;55925;51.764;6.402;2024-01-10T11:56:19;11.90;;;5.43;;
68886;SDS011;55925;51.764;6.402;2024-01-10T11:58:52;8.77;;;3.13;;
68886;SDS011;55925;51.764;6.402;2024-01-10T12:01:18;9.60;;;3.55;;
68886;SDS011;55925;51.764;6.402;2024-01-10T12:03:44;12.35;;;3.97;;
68886;SDS011;55925;51.764;6.402;2024-01-10T12:06:11;11.05;;;3.72;;
68886;SDS011;55925;51.764;6.402;2024-01-10T12:08:37;9.65;;;3.28;;
68886;SDS011;55925;51.764;6.402;2024-01-10T12:11:03;10.70;;;3.92;;
68886;SDS011;55925;51.764;6.402;2024-01-10T12:13:29;8.13;;;2.90;;
68886;SDS011;55925;51.764;6.402;2024-01-10T12:15:57;11.60;;;4.72;;
68886;SDS011;55925;51.764;6.402;2024-01-10T12:18:23;7.55;;;3.75;;
68886;SDS011;55925;51.764;6.402;2024-01-10T12:20:49;12.23;;;5.82;;
68886;SDS011;55925;51.764;6.402;2024-01-10T12:23:15;12.85;;;5.10;;
68886;SDS011;55925;51.764;6.402;2024-01-10T12:25:42;11.55;;;4.20;;
68886;SDS011;55925;51.764;6.402;2024-01-10T12:28:08;12.75;;;4.65;;
68886;SDS011;55925;51.764;6.402;2024-01-10T12:30:33;14.13;;;5.80;;
68886;SDS011;55925;51.764;6.402;2024-01-10T12:35:25;10.10;;;4.13;;
68886;SDS011;55925;51.764;6.402;2024-01-10T12:37:54;10.90;;;3.78;;
68886;SDS011;55925;51.764;6.402;2024-01-10T12:40:21;15.60;;;5.95;;
68886;SDS011;55925;51.764;6.402;2024-01-10T12:42:47;13.82;;;4.90;;
68886;SDS011;55925;51.764;6.402;2024-01-10T12:45:22;10.02;;;4.03;;
68886;SDS011;55925;51.764;6.402;2024-01-10T12:47:48;12.70;;;4.38;;
68886;SDS011;55925;51.764;6.402;2024-01-10T12:50:14;15.15;;;5.05;;
68886;SDS011;55925;51.764;6.402;2024-01-10T12:52:40;12.50;;;5.28;;
68886;SDS011;55925;51.764;6.402;2024-01-10T12:55:08;8.85;;;3.95;;
68886;SDS011;55925;51.764;6.402;2024-01-10T12:57:34;8.15;;;4.43;;
68886;SDS011;55925;51.764;6.402;2024-01-10T13:00:00;11.20;;;4.03;;
68886;SDS011;55925;51.764;6.402;2024-01-10T13:02:31;16.23;;;5.20;;
68886;SDS011;55925;51.764;6.402;2024-01-10T13:05:00;8.75;;;3.20;;
68886;SDS011;55925;51.764;6.402;2024-01-10T13:07:26;15.20;;;4.95;;
68886;SDS011;55925;51.764;6.402;2024-01-10T13:09:55;12.27;;;4.80;;
68886;SDS011;55925;51.764;6.402;2024-01-10T13:12:21;14.02;;;5.43;;
68886;SDS011;55925;51.764;6.402;2024-01-10T13:14:47;12.52;;;4.78;;
68886;SDS011;55925;51.764;6.402;2024-01-10T13:17:13;14.00;;;5.90;;
68886;SDS011;55925;51.764;6.402;2024-01-10T13:19:39;13.93;;;5.00;;
68886;SDS011;55925;51.764;6.402;2024-01-10T13:22:05;11.93;;;4.80;;
68886;SDS011;55925;51.764;6.402;2024-01-10T13:24:31;11.13;;;4.93;;
68886;SDS011;55925;51.764;6.402;2024-01-10T13:26:58;11.05;;;4.90;;
68886;SDS011;55925;51.764;6.402;2024-01-10T13:29:24;15.45;;;5.63;;
68886;SDS011;55925;51.764;6.402;2024-01-10T13:31:49;16.50;;;4.93;;
68886;SDS011;55925;51.764;6.402;2024-01-10T13:34:16;10.32;;;4.22;;
68886;SDS011;55925;51.764;6.402;2024-01-10T13:36:42;16.02;;;4.82;;
68886;SDS011;55925;51.764;6.402;2024-01-10T13:39:08;10.45;;;4.47;;
68886;SDS011;55925;51.764;6.402;2024-01-10T13:41:34;13.68;;;4.95;;
68886;SDS011;55925;51.764;6.402;2024-01-10T13:44:00;11.13;;;4.18;;
68886;SDS011;55925;51.764;6.402;2024-01-10T13:46:26;12.15;;;5.70;;
68886;SDS011;55925;51.764;6.402;2024-01-10T13:48:52;10.02;;;5.38;;
68886;SDS011;55925;51.764;6.402;2024-01-10T13:51:18;14.70;;;5.63;;
68886;SDS011;55925;51.764;6.402;2024-01-10T13:53:44;13.05;;;4.40;;
68886;SDS011;55925;51.764;6.402;2024-01-10T13:56:10;14.32;;;5.18;;
68886;SDS011;55925;51.764;6.402;2024-01-10T13:58:37;12.80;;;4.70;;
68886;SDS011;55925;51.764;6.402;2024-01-10T14:01:03;14.05;;;4.28;;
68886;SDS011;55925;51.764;6.402;2024-01-10T14:03:29;7.25;;;3.00;;
68886;SDS011;55925;51.764;6.402;2024-01-10T14:05:55;13.43;;;4.65;;
68886;SDS011;55925;51.764;6.402;2024-01-10T14:08:21;12.52;;;5.10;;
68886;SDS011;55925;51.764;6.402;2024-01-10T14:10:47;12.30;;;5.00;;
68886;SDS011;55925;51.764;6.402;2024-01-10T14:13:13;10.40;;;4.78;;
68886;SDS011;55925;51.764;6.402;2024-01-10T14:15:39;9.10;;;3.78;;
68886;SDS011;55925;51.764;6.402;2024-01-10T14:18:05;15.38;;;4.85;;
68886;SDS011;55925;51.764;6.402;2024-01-10T14:20:32;10.40;;;4.95;;
68886;SDS011;55925;51.764;6.402;2024-01-10T14:22:58;13.38;;;5.20;;
68886;SDS011;55925;51.764;6.402;2024-01-10T14:25:25;12.73;;;5.68;;
68886;SDS011;55925;51.764;6.402;2024-01-10T14:27:51;14.88;;;5.00;;
68886;SDS011;55925;51.764;6.402;2024-01-10T14:30:17;17.02;;;4.93;;
68886;SDS011;55925;51.764;6.402;2024-01-10T14:32:44;12.90;;;5.15;;
68886;SDS011;55925;51.764;6.402;2024-01-10T14:35:12;12.25;;;5.18;;
68886;SDS011;55925;51.764;6.402;2024-01-10T14:37:38;13.27;;;4.90;;
68886;SDS011;55925;51.764;6.402;2024-01-10T14:40:04;10.05;;;4.50;;
68886;SDS011;55925;51.764;6.402;2024-01-10T14:42:31;11.27;;;4.30;;
68886;SDS011;55925;51.764;6.402;2024-01-10T14:44:58;14.20;;;5.25;;
68886;SDS011;55925;51.764;6.402;2024-01-10T14:47:24;15.23;;;5.55;;
68886;SDS011;55925;51.764;6.402;2024-01-10T14:49:49;11.32;;;4.30;;
68886;SDS011;55925;51.764;6.402;2024-01-10T14:52:15;14.65;;;5.63;;
68886;SDS011;55925;51.764;6.402;2024-01-10T14:57:07;13.00;;;5.28;;
68886;SDS011;55925;51.764;6.402;2024-01-10T14:59:33;12.90;;;4.95;;
68886;SDS011;55925;51.764;6.402;2024-01-10T15:02:02;16.55;;;5.72;;
68886;SDS011;55925;51.764;6.402;2024-01-10T15:04:31;12.07;;;6.15;;
68886;SDS011;55925;51.764;6.402;2024-01-10T15:06:58;14.65;;;6.38;;
68886;SDS011;55925;51.764;6.402;2024-01-10T15:09:26;14.48;;;6.18;;
68886;SDS011;55925;51.764;6.402;2024-01-10T15:11:52;13.32;;;6.22;;
68886;SDS011;55925;51.764;6.402;2024-01-10T15:14:20;12.93;;;5.40;;
68886;SDS011;55925;51.764;6.402;2024-01-10T15:16:47;11.80;;;5.40;;
68886;SDS011;55925;51.764;6.402;2024-01-10T15:19:13;13.32;;;5.50;;
68886;SDS011;55925;51.764;6.402;2024-01-10T15:21:39;13.13;;;5.97;;
68886;SDS011;55925;51.764;6.402;2024-01-10T15:24:05;11.05;;;4.65;;
68886;SDS011;55925;51.764;6.402;2024-01-10T15:26:31;12.65;;;5.50;;
68886;SDS011;55925;51.764;6.402;2024-01-10T15:28:57;13.32;;;6.40;;
68886;SDS011;55925;51.764;6.402;2024-01-10T15:31:24;14.85;;;6.07;;
68886;SDS011;55925;51.764;6.402;2024-01-10T15:33:50;17.65;;;7.60;;
68886;SDS011;55925;51.764;6.402;2024-01-10T15:36:16;13.82;;;5.57;;
68886;SDS011;55925;51.764;6.402;2024-01-10T15:38:42;12.80;;;5.53;;
68886;SDS011;55925;51.764;6.402;2024-01-10T15:41:09;11.75;;;5.47;;
68886;SDS011;55925;51.764;6.402;2024-01-10T15:43:38;13.13;;;4.88;;
68886;SDS011;55925;51.764;6.402;2024-01-10T15:46:04;15.25;;;5.90;;
68886;SDS011;55925;51.764;6.402;2024-01-10T15:48:31;7.50;;;3.05;;
68886;SDS011;55925;51.764;6.402;2024-01-10T15:50:57;11.63;;;3.97;;
68886;SDS011;55925;51.764;6.402;2024-01-10T15:53:23;17.70;;;5.63;;
68886;SDS011;55925;51.764;6.402;2024-01-10T15:55:49;15.85;;;6.13;;
68886;SDS011;55925;51.764;6.402;2024-01-10T15:58:16;15.23;;;6.25;;
68886;SDS011;55925;51.764;6.402;2024-01-10T16:00:42;15.38;;;6.65;;
68886;SDS011;55925;51.764;6.402;2024-01-10T16:03:08;14.20;;;5.78;;
68886;SDS011;55925;51.764;6.402;2024-01-10T16:08:00;15.68;;;4.90;;
68886;SDS011;55925;51.764;6.402;2024-01-10T16:12:52;11.05;;;5.07;;
68886;SDS011;55925;51.764;6.402;2024-01-10T16:15:18;14.95;;;5.47;;